Aérodrome :
LOGIN :

S'inscrire | Disclaimer

   EN    FR    IT 

 










Légende :    VFR   VFR Marginal   IFR   IFR Intensif   IFR Très Intensif
Visi : 
Plafond : 
>= 8 km
>= 3000ft
5 à 8 km
1000 à 3000 ft
1500m à 5 km
500 à 1000 ft
800 à 1500m
200 à 500 ft
< 800m
< 200 ft
Symboles :   Orages  Brouillard  Fortes neiges  Fortes précipitations  Vent > 20 kt
SIGMETs :   Divers  Orages  Givrage  Turbulence  Onde Orograph.  Cendres Volcan.






- Altitude de l'aérodrome : 36 ft
- Code IATA : LTQ


LFAT - Le Touquet

DERNIER METAR :
  • 231400Z AUTO 35003KT 9999 FEW005/// BKN013/// BKN020/// ///TCU 04/03 Q0993 BECMG BKN020

METARs EXPIRÉS :
  • 231330Z AUTO 36002KT 9999 SCT005/// BKN029/// BKN044/// ///TCU 04/03 Q0993 BECMG BKN020
  • 231300Z AUTO 00000KT 7000 -SNRA FEW010/// SCT014/// BKN024/// ///CB 04/03 Q0993 TEMPO 3000 RA BECMG 32010KT BKN020
  • 231230Z AUTO VRB01KT 9999 -RA OVC011/// ///TCU 04/03 Q0993 TEMPO 3000 RA BECMG BKN020
  • 231200Z AUTO VRB02KT 9999 BKN011/// OVC068/// ///TCU 04/03 Q0994 TEMPO 3000 RA OVC008
  • 231130Z AUTO 12003KT 9999 BKN007/// BKN047/// OVC054/// ///TCU 04/03 Q0993 TEMPO 3000 RA OVC008

TAF TAF LFAT
Valide du 23 à 12h jusqu'au 23 à 21h UTC


231100Z 2312/2321 11005KT 9999 BKN013 OVC050
TEMPO 2312/2314 3000 RA OVC008
BECMG 2314/2316 32010KT BKN020
ATIS : +33 3 21 06 62 84



MET'MAP, la Météo Aéronautique d'un coup d'oeil ! - Copyright ORBIFLY Décembre 2007 - Disclaimer

ORBIFLY MET'MAP TEAM :

Programmation & Développement : Alexandra Zaïnal
Sur une idée originale de : Baudouin d'Aumeries
Assistance à la programmation : Marc-Olivier Méhu
Soutien technique & logistique : Manuel Goepfert

Contact : metmap@orbifly.com




SOURCES & CREDITS :

   NOAA